In Rescue
 
Open Full Screen Window  High Contrast Mode
September 19, 2019 3:51 PM CDT
Weather Information
Wind Direction
  ---
Wind Speed
  00 kt (0 mph)
Wind Gust
  00 kt (0 mph)
Altimeter
30.00 in
Visibility
10 SM
Temperature
27° C
81° F
Dewpoint
16° C
61° F
Humidity
51%
1hr Rain Fall
00.00 in.
24hr Rain Fall
00.10 in.
Sky Condition
Clear
VFR

METAR KMJQ 192051Z AUTO 00000KT 10SM CLR 27/16 A3000 RMK AO2 PWINO

FAA Disclaimer: The data displayed is for advisory purposes only and is not to be used for flight planning or operations.